»·PEaware :: N171CP L88-KSBP

N171CP :: L88-KSBP

FLIGHT INFORMATION

Flight Status: Arrived
Operator: Privately registered:
United States
More flights under this callsign
Pilot: Dwight D. (26772)
Aircraft: CESSNA 172 SKYHAWK
(C172)
More flights by this aircraft type
Origin: L88 New Cuyama
United States
Destination: KSBP San Luis Co Regl
United States
More flights between these airports :: More routes between these airports
Route:
File this flight plan on PilotEdge
Remarks:
Altitude:
(Current/Filed)
3,500ft
Speed:
(Current/Filed)
110kts
Departed: 25-Nov-19 07:03 AM
Arrived: 25-Nov-19 07:38 AM
Distance/Time
Traveled:
64nm/0:34
Distance/Time
To Go:
Arrived

Flight Plot

Page will automatically refresh every two minutes.


Map Options




Map Legend


Flown Route
Filed Route
Departure Airport
Arrival Airport
Navaid (VOR, NDB)
Fix

Horizontal Profiles

Position Reports

Time Latitude Longitude Heading Altitude Ground
Speed
25-Nov-19 06:53 34.935270 -119.682698 295 2206ft 0kts
25-Nov-19 06:54 34.935270 -119.682698 295 2206ft 0kts
25-Nov-19 06:55 34.935270 -119.682698 295 2206ft 0kts
25-Nov-19 06:56 34.935270 -119.682699 295 2206ft 0kts
25-Nov-19 06:57 34.935270 -119.682699 295 2206ft 0kts
25-Nov-19 06:58 34.935271 -119.682700 295 2206ft 0kts
25-Nov-19 06:59 34.935271 -119.682700 295 2206ft 0kts
25-Nov-19 07:00 34.935271 -119.682701 295 2206ft 0kts
25-Nov-19 07:01 34.935271 -119.682701 295 2206ft 0kts
25-Nov-19 07:02 34.936593 -119.686152 295 2206ft 63kts
25-Nov-19 07:03 34.945880 -119.710519 296 2877ft 78kts
25-Nov-19 07:04 34.955048 -119.735230 296 3511ft 87kts
25-Nov-19 07:05 34.970456 -119.763035 309 3499ft 105kts
25-Nov-19 07:06 34.986289 -119.794043 297 3500ft 109kts
25-Nov-19 07:07 34.999507 -119.827437 297 3499ft 109kts
25-Nov-19 07:08 35.012746 -119.860895 297 3500ft 109kts
25-Nov-19 07:09 35.025923 -119.894203 297 3500ft 109kts
25-Nov-19 07:10 35.039201 -119.927773 297 3500ft 109kts
25-Nov-19 07:11 35.052403 -119.961155 297 3500ft 109kts
25-Nov-19 07:12 35.065599 -119.994527 297 3500ft 109kts
25-Nov-19 07:13 35.078856 -120.028044 297 3500ft 109kts
25-Nov-19 07:14 35.091052 -120.058908 297 3870ft 92kts
25-Nov-19 07:15 35.099554 -120.086607 275 4401ft 86kts
25-Nov-19 07:16 35.100253 -120.115069 276 4943ft 81kts
25-Nov-19 07:17 35.103167 -120.141501 283 5476ft 78kts
25-Nov-19 07:18 35.110626 -120.171154 289 5504ft 98kts
25-Nov-19 07:19 35.114527 -120.202079 264 5663ft 95kts
25-Nov-19 07:20 35.110219 -120.236836 259 5498ft 103kts
25-Nov-19 07:21 35.101928 -120.270322 257 5499ft 102kts
25-Nov-19 07:22 35.077711 -120.289449 217 5500ft 111kts
25-Nov-19 07:23 35.056066 -120.314483 254 5494ft 102kts
25-Nov-19 07:24 35.048363 -120.347674 257 5499ft 102kts
25-Nov-19 07:25 35.039436 -120.383681 257 5011ft 120kts
25-Nov-19 07:26 35.032446 -120.424240 270 4423ft 121kts
25-Nov-19 07:27 35.039102 -120.463467 303 3908ft 120kts
25-Nov-19 07:28 35.060029 -120.491201 316 3775ft 118kts
25-Nov-19 07:29 35.086919 -120.517490 323 3125ft 126kts
25-Nov-19 07:30 35.114727 -120.541117 330 2812ft 117kts
25-Nov-19 07:31 35.145441 -120.557768 338 2491ft 120kts
25-Nov-19 07:32 35.174153 -120.572046 336 2274ft 92kts
25-Nov-19 07:33 35.192916 -120.582724 329 1869ft 70kts
25-Nov-19 07:34 35.207574 -120.596797 320 1689ft 65kts
25-Nov-19 07:35 35.221066 -120.613794 308 1255ft 69kts
25-Nov-19 07:36 35.232173 -120.632545 302 317ft 65kts
25-Nov-19 07:37 35.236689 -120.640158 305 215ft 0kts
25-Nov-19 07:38 35.236689 -120.640158 305 215ft 0kts
25-Nov-19 07:39 35.236689 -120.640159 305 215ft 0kts
25-Nov-19 07:40 35.236690 -120.640159 305 215ft 0kts
25-Nov-19 07:41 35.236690 -120.640159 305 215ft 0kts
25-Nov-19 07:42 35.236690 -120.640160 305 215ft 0kts
25-Nov-19 07:43 35.247020 -120.659097 297 851ft 72kts
25-Nov-19 07:44 35.254946 -120.684861 297 1674ft 80kts
25-Nov-19 07:45 35.263412 -120.709854 293 2531ft 77kts
25-Nov-19 07:46 35.271620 -120.736980 297 3072ft 94kts
25-Nov-19 07:47 35.282477 -120.766643 295 3478ft 95kts
25-Nov-19 07:48 35.293952 -120.798822 295 3469ft 112kts
25-Nov-19 07:49 35.306284 -120.833133 295 3219ft 117kts
25-Nov-19 07:50 35.317945 -120.865539 295 2981ft 119kts
25-Nov-19 07:51 35.328868 -120.895875 295 2759ft 120kts

Navigation Log

Ident Type
Flight plan parsing failed, navigation log unavailable